Route Details

Aircraft Information
Group: North America Fleet
Types: B738, B752, B762, B763
Route Data
Distance: 1439nm
Duration: 3h 35m
Origin METAR: KSEA 072314Z 22016G25KT 10SM SCT016 BKN150 09/06 A3012 RMK AO2 PK WND 22030/2255 T00940056
Dest. METAR: KRFD 072354Z 25005KT 10SM CLR 02/M03 A3015 RMK AO2 SLP216 T00221033 10050 20022 53020
Freight Data
(for Feb 8, 2023)
Load Factor:
39%
Manifested Cargo: 43,252lbs
Financial History
Total Freight: 698,670lbs
Average Load: 0lbs/flt
Fuel Used: 377,719lbs
Avg. Fuel Used: 0lbs/flt
Fuel Expense: $305,809
Avg. Fuel Expense: $0
Avg. Fuel Cost: $0/lbs
Total Gross Income: $1,202,283
Pilot Pay: $2,150
Total Expenses: $167,403
Total Revenue: $720,353
Average Revenue: $0

Capitol Logistics 361




KSEA
Seattle-Tacoma International Airport
Seattle, Washington
KRFD
Chicago/Rockford International Airport
Rockford, Illinois